Time;durP1;ratioP1;P1;durP2;ratioP2;P2;SDS_P1;SDS_P2;PMS_P1;PMS_P2;Temp;Humidity;BMP_temperature;BMP_pressure;BME280_temperature;BME280_humidity;BME280_pressure;Samples;Min_cycle;Max_cycle;Signal;HPM_P1;HPM_P2
2021/10/13 00:02:12;;;;;;;4.85;3.80;;;;;;;9.48;100.00;96423.22;5047517;28;20530;-58
2021/10/13 00:04:41;;;;;;;4.15;3.70;;;;;;;9.48;100.00;96433.75;5027825;28;20064;-56
2021/10/13 00:07:09;;;;;;;5.28;3.72;;;;;;;9.60;100.00;96434.44;5023924;28;20100;-59
2021/10/13 00:09:38;;;;;;;3.92;3.53;;;;;;;9.57;100.00;96443.47;5020350;28;20064;-59
2021/10/13 00:12:06;;;;;;;5.90;3.70;;;;;;;9.68;100.00;96437.22;5024131;28;20130;-56
2021/10/13 00:14:35;;;;;;;4.55;3.80;;;;;;;9.74;100.00;96442.75;5046223;28;21870;-55
2021/10/13 00:17:06;;;;;;;7.78;3.67;;;;;;;9.79;100.00;96447.59;5027349;28;20076;-55
2021/10/13 00:19:34;;;;;;;7.35;3.85;;;;;;;9.70;100.00;96449.28;5020488;28;20450;-56
2021/10/13 00:22:03;;;;;;;4.10;3.70;;;;;;;9.60;100.00;96452.88;5022514;28;20449;-57
2021/10/13 00:24:31;;;;;;;5.88;4.22;;;;;;;9.65;100.00;96451.50;5026905;28;20084;-56
2021/10/13 00:27:00;;;;;;;5.95;4.30;;;;;;;9.61;100.00;96459.81;5045694;28;20091;-55
2021/10/13 00:29:28;;;;;;;5.95;4.20;;;;;;;9.48;100.00;96460.91;5021771;28;20073;-59
2021/10/13 00:31:57;;;;;;;7.03;4.90;;;;;;;9.95;100.00;96457.56;5037589;28;20531;-52
2021/10/13 00:34:27;;;;;;;6.07;4.50;;;;;;;9.90;100.00;96462.41;5028082;28;20065;-57
2021/10/13 00:36:55;;;;;;;5.47;4.65;;;;;;;9.81;100.00;96458.00;5017981;28;20551;-58
2021/10/13 00:39:24;;;;;;;7.20;5.30;;;;;;;9.95;100.00;96465.47;5028101;28;20085;-60
2021/10/13 00:41:52;;;;;;;6.18;4.78;;;;;;;9.76;100.00;96468.94;5039201;28;20072;-59
2021/10/13 00:44:21;;;;;;;5.97;5.00;;;;;;;9.88;100.00;96474.91;5039205;28;20451;-57
2021/10/13 00:46:49;;;;;;;6.93;5.40;;;;;;;9.75;100.00;96478.66;5043988;28;20072;-54
2021/10/13 00:49:18;;;;;;;5.97;5.30;;;;;;;9.77;100.00;96475.88;5029940;28;20069;-58
2021/10/13 00:51:48;;;;;;;6.10;5.22;;;;;;;9.68;100.00;96482.00;5025866;28;20065;-58
2021/10/13 00:54:16;;;;;;;6.45;5.28;;;;;;;9.75;100.00;96481.28;5024158;28;20587;-58
2021/10/13 00:56:45;;;;;;;6.45;5.45;;;;;;;9.85;100.00;96483.09;5019112;28;20462;-58
2021/10/13 00:59:13;;;;;;;6.10;5.50;;;;;;;9.75;100.00;96483.91;5035889;28;20071;-54
2021/10/13 01:01:47;;;;;;;6.63;5.20;;;;;;;9.60;100.00;96495.00;5044958;28;20538;-56
2021/10/13 01:04:24;;;;;;;6.03;5.43;;;;;;;9.59;100.00;96503.88;5035189;28;20077;-54
2021/10/13 01:07:01;;;;;;;8.73;5.72;;;;;;;9.64;100.00;96504.31;5040135;28;20066;-53
2021/10/13 01:09:34;;;;;;;7.70;5.65;;;;;;;9.69;100.00;96507.34;5026446;28;20068;-54
2021/10/13 01:12:14;;;;;;;7.25;5.78;;;;;;;9.75;100.00;96515.53;5017291;28;20081;-52
2021/10/13 01:14:47;;;;;;;11.45;6.55;;;;;;;9.75;100.00;96506.78;5026834;28;20072;-56
2021/10/13 01:17:22;;;;;;;10.55;6.70;;;;;;;9.58;100.00;96513.56;5027994;28;20555;-59
2021/10/13 01:20:00;;;;;;;9.00;6.93;;;;;;;9.83;100.00;96512.19;5019977;28;20069;-55
2021/10/13 01:23:09;;;;;;;7.47;6.68;;;;;;;9.86;100.00;96517.19;5031779;28;20631;-58
2021/10/13 01:25:48;;;;;;;8.95;7.07;;;;;;;10.07;100.00;96522.31;5031783;28;20065;-54
2021/10/13 01:28:19;;;;;;;8.52;6.85;;;;;;;10.09;100.00;96525.63;5021046;28;20065;-56
2021/10/13 01:30:54;;;;;;;9.57;7.20;;;;;;;10.20;100.00;96525.47;5020103;28;20407;-56
2021/10/13 01:33:25;;;;;;;8.27;7.07;;;;;;;10.01;100.00;96530.75;5027589;28;20072;-59
2021/10/13 01:35:58;;;;;;;8.75;6.18;;;;;;;9.96;100.00;96539.09;5029363;28;20081;-53
2021/10/13 01:38:28;;;;;;;7.85;6.80;;;;;;;10.03;100.00;96544.63;5018611;28;21345;-58
2021/10/13 01:41:00;;;;;;;9.45;6.43;;;;;;;10.06;100.00;96540.91;5041266;28;20029;-55
2021/10/13 01:43:33;;;;;;;8.73;6.38;;;;;;;9.92;100.00;96548.25;5022844;28;20043;-56
2021/10/13 01:46:04;;;;;;;8.70;6.95;;;;;;;10.10;100.00;96553.66;5017132;28;20080;-55
2021/10/13 01:48:33;;;;;;;9.50;6.72;;;;;;;9.94;100.00;96550.72;5026404;28;20072;-55
2021/10/13 01:51:01;;;;;;;8.20;7.22;;;;;;;10.18;100.00;96553.75;5021949;28;20542;-54
2021/10/13 01:53:30;;;;;;;7.80;6.63;;;;;;;10.01;100.00;96557.09;5025868;28;20478;-54
2021/10/13 01:55:59;;;;;;;7.90;6.40;;;;;;;9.97;100.00;96566.25;5023357;28;20062;-52
2021/10/13 01:58:28;;;;;;;9.90;7.40;;;;;;;10.04;100.00;96564.72;5031367;28;20072;-52
2021/10/13 02:00:58;;;;;;;9.85;7.72;;;;;;;10.04;100.00;96571.81;5043999;28;20065;-53
2021/10/13 02:03:29;;;;;;;8.73;7.35;;;;;;;10.29;100.00;96570.44;5036615;28;20080;-54
2021/10/13 02:06:00;;;;;;;8.60;7.47;;;;;;;10.17;100.00;96565.28;5024124;28;20088;-55
2021/10/13 02:08:29;;;;;;;14.05;8.63;;;;;;;10.01;100.00;96574.72;5022121;28;20288;-51
2021/10/13 02:11:00;;;;;;;9.63;7.75;;;;;;;10.31;100.00;96563.22;5018737;28;20706;-55
2021/10/13 02:13:29;;;;;;;;;;;;;;;10.27;100.00;96573.22;5015664;28;20083;-58
2021/10/13 02:16:00;;;;;;;11.23;7.63;;;;;;;10.28;100.00;96576.69;5024329;28;19921;-54
2021/10/13 02:18:30;;;;;;;10.27;8.15;;;;;;;10.36;100.00;96584.75;5023006;28;20061;-57
2021/10/13 02:20:59;;;;;;;12.20;9.10;;;;;;;10.43;100.00;96577.94;5023422;28;20069;-57
2021/10/13 02:23:31;;;;;;;9.55;7.30;;;;;;;10.36;100.00;96587.38;5021466;28;20100;-56
2021/10/13 02:26:05;;;;;;;8.68;7.18;;;;;;;10.06;100.00;96585.69;5018987;28;20076;-59
2021/10/13 02:28:36;;;;;;;9.15;7.82;;;;;;;9.97;100.00;96588.16;5019748;28;20065;-57
2021/10/13 02:31:06;;;;;;;9.48;7.53;;;;;;;9.81;100.00;96598.44;5021145;28;20065;-54
2021/10/13 02:33:36;;;;;;;11.98;7.50;;;;;;;9.65;100.00;96598.94;5024709;28;20083;-57
2021/10/13 02:36:05;;;;;;;8.95;7.47;;;;;;;9.42;100.00;96602.75;5023764;28;20088;-59
2021/10/13 02:38:33;;;;;;;10.95;7.53;;;;;;;9.53;100.00;96618.44;5027508;28;20065;-53
2021/10/13 02:41:02;;;;;;;9.73;7.70;;;;;;;9.39;100.00;96624.06;5023093;28;20068;-59
2021/10/13 02:43:30;;;;;;;10.75;7.28;;;;;;;9.26;100.00;96614.63;5022181;28;20061;-58
2021/10/13 02:46:02;;;;;;;9.93;7.80;;;;;;;9.08;100.00;96624.06;5022815;28;20062;-58
2021/10/13 02:48:33;;;;;;;12.13;7.80;;;;;;;9.02;100.00;96624.63;5020923;28;20084;-56
2021/10/13 02:51:08;;;;;;;10.30;7.15;;;;;;;9.03;100.00;96628.91;5041403;28;20748;-51
2021/10/13 02:53:40;;;;;;;12.40;7.70;;;;;;;9.06;100.00;96644.44;5025594;28;20069;-56
2021/10/13 02:56:14;;;;;;;10.35;8.30;;;;;;;9.00;100.00;96631.81;5018718;28;20128;-59
2021/10/13 02:58:43;;;;;;;12.75;7.78;;;;;;;9.01;100.00;96638.72;5018446;28;20746;-55
2021/10/13 03:01:14;;;;;;;11.68;8.00;;;;;;;8.92;100.00;96640.34;5023378;28;20069;-57
2021/10/13 03:03:50;;;;;;;11.93;7.78;;;;;;;8.87;100.00;96639.88;5030951;28;20085;-59
2021/10/13 03:06:19;;;;;;;9.77;7.30;;;;;;;8.79;100.00;96643.16;5025464;28;20081;-58
2021/10/13 03:08:49;;;;;;;11.43;7.68;;;;;;;8.75;100.00;96648.81;5050359;28;20465;-58
2021/10/13 03:11:20;;;;;;;10.35;8.07;;;;;;;8.55;100.00;96648.69;5028786;28;20469;-60
2021/10/13 03:13:49;;;;;;;;;;;;;;;8.59;100.00;96651.88;5027139;28;20075;-57
2021/10/13 03:16:19;;;;;;;11.18;7.93;;;;;;;8.64;100.00;96646.28;5034603;28;19956;-56
2021/10/13 03:18:49;;;;;;;11.30;7.55;;;;;;;8.68;100.00;96650.31;5040198;28;20072;-52
2021/10/13 03:21:18;;;;;;;11.85;8.45;;;;;;;8.73;100.00;96653.38;5043354;28;20084;-53
2021/10/13 03:23:46;;;;;;;10.57;8.10;;;;;;;8.71;100.00;96658.78;5025598;28;20097;-58
2021/10/13 03:26:15;;;;;;;12.40;8.50;;;;;;;8.80;100.00;96660.59;5043232;28;20068;-58
2021/10/13 03:28:43;;;;;;;9.77;7.88;;;;;;;8.89;100.00;96666.06;5031651;28;20065;-58
2021/10/13 03:31:12;;;;;;;11.98;8.80;;;;;;;8.94;100.00;96675.22;5024405;28;20061;-55
2021/10/13 03:33:40;;;;;;;13.93;8.43;;;;;;;9.07;100.00;96669.78;5020399;28;20065;-56
2021/10/13 03:36:10;;;;;;;14.25;8.32;;;;;;;8.98;100.00;96681.91;5019698;28;20236;-52
2021/10/13 03:38:39;;;;;;;14.48;9.13;;;;;;;9.09;100.00;96675.75;5024280;28;20080;-54
2021/10/13 03:41:07;;;;;;;11.90;7.82;;;;;;;9.10;100.00;96676.56;5024483;28;20069;-59
2021/10/13 03:43:36;;;;;;;12.52;7.90;;;;;;;9.05;100.00;96676.97;5025088;28;20084;-54
2021/10/13 03:46:04;;;;;;;11.60;8.65;;;;;;;9.00;100.00;96687.03;5034225;28;20485;-56
2021/10/13 03:48:32;;;;;;;12.52;9.02;;;;;;;9.03;100.00;96687.63;5045223;28;20060;-59
2021/10/13 03:51:01;;;;;;;13.05;9.35;;;;;;;8.87;100.00;96678.50;5043561;28;20087;-55
2021/10/13 03:53:31;;;;;;;11.98;8.30;;;;;;;8.84;100.00;96684.03;5027389;28;20120;-56
2021/10/13 03:55:59;;;;;;;11.63;8.82;;;;;;;8.92;100.00;96685.06;5023668;28;20060;-53
2021/10/13 03:58:27;;;;;;;12.75;9.07;;;;;;;8.90;100.00;96689.59;5031337;28;20109;-57
2021/10/13 04:00:56;;;;;;;15.20;8.90;;;;;;;8.83;100.00;96688.44;5035330;28;20563;-53
2021/10/13 04:03:25;;;;;;;12.80;8.40;;;;;;;8.86;100.00;96697.88;5027700;28;20076;-60
2021/10/13 04:05:54;;;;;;;13.23;8.85;;;;;;;8.76;100.00;96703.06;5023267;28;20583;-57
2021/10/13 04:08:24;;;;;;;11.80;9.05;;;;;;;8.70;100.00;96700.94;5024454;28;20152;-55
2021/10/13 04:10:54;;;;;;;14.38;8.90;;;;;;;8.58;100.00;96701.97;5025120;28;20073;-55
2021/10/13 04:13:22;;;;;;;10.65;8.15;;;;;;;8.65;100.00;96697.88;5026562;28;20610;-58
2021/10/13 04:15:51;;;;;;;12.77;8.40;;;;;;;8.56;100.00;96705.53;5034884;28;20528;-54
2021/10/13 04:18:19;;;;;;;13.93;8.82;;;;;;;8.40;100.00;96709.56;5045932;28;20088;-61
2021/10/13 04:20:48;;;;;;;12.63;8.85;;;;;;;8.44;100.00;96716.25;5049389;28;20081;-58
2021/10/13 04:23:17;;;;;;;11.65;8.35;;;;;;;8.08;100.00;96721.66;5041786;28;20076;-55
2021/10/13 04:25:46;;;;;;;11.18;7.80;;;;;;;7.79;100.00;96721.38;5042221;28;20080;-59
2021/10/13 04:28:16;;;;;;;12.23;7.50;;;;;;;7.93;100.00;96722.06;5036491;28;20083;-57
2021/10/13 04:30:49;;;;;;;12.70;8.60;;;;;;;8.05;100.00;96732.44;5024025;28;20467;-58
2021/10/13 04:33:17;;;;;;;12.68;8.20;;;;;;;8.08;100.00;96726.09;5022027;28;20076;-55
2021/10/13 04:35:46;;;;;;;12.38;8.45;;;;;;;8.20;100.00;96724.28;5047885;28;20083;-56
2021/10/13 04:38:14;;;;;;;12.85;8.55;;;;;;;8.20;100.00;96732.16;5045568;28;20072;-55
2021/10/13 04:40:43;;;;;;;13.98;8.07;;;;;;;8.08;100.00;96736.59;5039870;28;20065;-59
2021/10/13 04:43:11;;;;;;;10.98;7.80;;;;;;;8.02;100.00;96735.31;5031540;28;20061;-53
2021/10/13 04:45:41;;;;;;;11.88;8.20;;;;;;;8.05;100.00;96747.34;5024437;28;20077;-55
2021/10/13 04:48:10;;;;;;;15.32;7.97;;;;;;;8.05;100.00;96737.69;5022831;28;20085;-57
2021/10/13 04:50:38;;;;;;;13.98;8.07;;;;;;;8.07;100.00;96745.44;5044758;28;20547;-56
2021/10/13 04:53:07;;;;;;;12.45;8.93;;;;;;;8.13;100.00;96742.31;5044531;28;20068;-54
2021/10/13 04:55:35;;;;;;;11.30;8.13;;;;;;;7.99;100.00;96746.06;5031721;28;20069;-56
2021/10/13 04:58:22;;;;;;;13.20;8.90;;;;;;;8.12;100.00;96750.31;5026701;28;20539;-57
2021/10/13 05:00:52;;;;;;;13.02;8.75;;;;;;;8.03;100.00;96739.59;5021963;28;20057;-53
2021/10/13 05:03:21;;;;;;;11.38;8.98;;;;;;;8.12;100.00;96748.56;5028099;28;20533;-60
2021/10/13 05:05:49;;;;;;;14.05;8.55;;;;;;;8.13;100.00;96739.72;5028729;28;20053;-58
2021/10/13 05:08:18;;;;;;;13.95;8.73;;;;;;;8.21;100.00;96739.91;5026190;28;20072;-56
2021/10/13 05:10:46;;;;;;;13.52;8.60;;;;;;;7.83;100.00;96741.16;5040543;28;20072;-59
2021/10/13 05:13:14;;;;;;;15.98;9.15;;;;;;;7.94;100.00;96742.94;5037390;28;20080;-57
2021/10/13 05:15:44;;;;;;;12.00;8.93;;;;;;;7.79;100.00;96749.41;5033197;28;20060;-56
2021/10/13 05:18:14;;;;;;;13.95;9.27;;;;;;;7.64;100.00;96753.22;5041437;28;20076;-55
2021/10/13 05:20:44;;;;;;;15.77;9.23;;;;;;;7.69;100.00;96756.34;5050299;28;20579;-56
2021/10/13 05:23:12;;;;;;;10.68;7.63;;;;;;;7.11;100.00;96759.84;5025876;28;20072;-58
2021/10/13 05:25:47;;;;;;;14.75;9.23;;;;;;;7.55;100.00;96760.88;5020143;28;20083;-55
2021/10/13 05:28:15;;;;;;;11.80;8.43;;;;;;;7.55;100.00;96765.28;5034920;28;20073;-57
2021/10/13 05:30:44;;;;;;;12.60;9.10;;;;;;;7.78;100.00;96772.22;5041173;28;20060;-51
2021/10/13 05:33:13;;;;;;;15.07;9.90;;;;;;;7.77;100.00;96778.38;5043929;28;20073;-48
2021/10/13 05:35:42;;;;;;;11.45;8.90;;;;;;;7.85;100.00;96778.66;5043445;28;20068;-57
2021/10/13 05:38:10;;;;;;;13.50;8.77;;;;;;;7.50;100.00;96777.91;5025811;28;20065;-55
2021/10/13 05:40:39;;;;;;;22.02;9.43;;;;;;;7.55;100.00;96778.41;5038339;28;20061;-55
2021/10/13 05:43:08;;;;;;;14.63;9.02;;;;;;;7.55;100.00;96783.66;5033630;28;20046;-49
2021/10/13 05:45:38;;;;;;;12.73;8.73;;;;;;;7.48;100.00;96785.06;5030217;28;20064;-53
2021/10/13 05:48:06;;;;;;;14.20;9.27;;;;;;;7.41;100.00;96789.94;5041253;28;20917;-52
2021/10/13 05:50:36;;;;;;;13.18;9.15;;;;;;;7.58;100.00;96796.53;5043665;28;20084;-53
2021/10/13 05:53:05;;;;;;;13.07;9.45;;;;;;;7.90;100.00;96806.34;5018192;28;20302;-51
2021/10/13 05:55:48;;;;;;;11.95;8.98;;;;;;;8.25;100.00;96801.75;5026133;28;20457;-49
2021/10/13 05:58:18;;;;;;;12.93;8.85;;;;;;;8.47;100.00;96807.97;5033065;28;20057;-51
2021/10/13 06:00:47;;;;;;;11.57;8.73;;;;;;;8.29;100.00;96810.22;5044333;28;20466;-57
2021/10/13 06:03:15;;;;;;;16.17;8.95;;;;;;;8.25;100.00;96816.69;5040553;28;20072;-52
2021/10/13 06:05:45;;;;;;;11.77;8.13;;;;;;;8.59;100.00;96820.13;5050928;28;20076;-55
2021/10/13 06:08:14;;;;;;;12.05;9.02;;;;;;;8.84;100.00;96828.66;5036098;28;20072;-54
2021/10/13 06:10:43;;;;;;;15.13;9.10;;;;;;;8.68;100.00;96836.97;5041854;28;20072;-55
2021/10/13 06:13:11;;;;;;;19.30;14.55;;;;;;;9.07;100.00;96832.88;5034817;28;20061;-53
2021/10/13 06:15:40;;;;;;;12.13;9.43;;;;;;;8.87;100.00;96834.50;5053080;28;20061;-56
2021/10/13 06:18:09;;;;;;;13.30;7.35;;;;;;;8.98;100.00;96833.63;5034790;28;20103;-52
2021/10/13 06:20:37;;;;;;;10.98;7.60;;;;;;;8.56;100.00;96841.41;5048102;28;20081;-48
2021/10/13 06:23:07;;;;;;;9.27;7.68;;;;;;;8.95;100.00;96844.41;5046630;28;20069;-49
2021/10/13 06:25:36;;;;;;;11.40;7.75;;;;;;;8.96;100.00;96844.28;5039745;28;20175;-51
2021/10/13 06:28:05;;;;;;;15.00;8.85;;;;;;;9.28;100.00;96851.31;5038617;28;20065;-53
2021/10/13 06:30:37;;;;;;;23.45;9.90;;;;;;;9.28;100.00;96840.78;5027765;28;20084;-51
2021/10/13 06:33:06;;;;;;;17.83;9.43;;;;;;;9.42;100.00;96858.91;5027661;28;20472;-52
2021/10/13 06:35:35;;;;;;;13.50;8.68;;;;;;;9.37;100.00;96858.47;5049492;28;20095;-50
2021/10/13 06:38:04;;;;;;;14.85;9.25;;;;;;;9.80;100.00;96854.84;5035676;28;20057;-54
2021/10/13 06:40:34;;;;;;;15.07;8.40;;;;;;;10.06;100.00;96855.28;5028007;28;20065;-58
2021/10/13 06:43:04;;;;;;;15.85;9.20;;;;;;;9.81;100.00;96860.97;5023389;28;20069;-58
2021/10/13 06:45:35;;;;;;;13.80;9.02;;;;;;;10.29;100.00;96865.66;5021051;28;20061;-56
2021/10/13 06:48:04;;;;;;;13.70;9.13;;;;;;;9.94;100.00;96867.72;5044555;28;20081;-54
2021/10/13 06:50:33;;;;;;;12.40;9.43;;;;;;;10.12;100.00;96872.38;5042852;28;20085;-53
2021/10/13 06:53:02;;;;;;;14.10;9.57;;;;;;;10.49;100.00;96867.38;5023950;28;20074;-56
2021/10/13 06:55:30;;;;;;;12.75;8.90;;;;;;;10.60;100.00;96867.31;5032757;28;20077;-51
2021/10/13 06:58:00;;;;;;;13.43;10.02;;;;;;;10.43;100.00;96867.94;5028286;28;20072;-53
2021/10/13 07:00:29;;;;;;;17.60;10.48;;;;;;;10.88;100.00;96876.25;5048125;28;20081;-55
2021/10/13 07:02:57;;;;;;;13.38;9.43;;;;;;;10.23;100.00;96882.81;5028843;28;20100;-53
2021/10/13 07:05:26;;;;;;;12.32;9.00;;;;;;;10.67;100.00;96891.34;5025484;28;20536;-53
2021/10/13 07:07:55;;;;;;;14.63;9.43;;;;;;;10.62;100.00;96889.09;5024272;28;20077;-51
2021/10/13 07:10:24;;;;;;;17.67;9.30;;;;;;;11.16;100.00;96893.09;5018761;28;20065;-54
2021/10/13 07:12:52;;;;;;;11.82;9.20;;;;;;;11.22;100.00;96898.78;5031854;28;20065;-52
2021/10/13 07:15:22;;;;;;;13.95;9.05;;;;;;;10.82;100.00;96907.63;5046727;28;20084;-55
2021/10/13 07:17:51;;;;;;;12.98;9.23;;;;;;;11.17;100.00;96913.22;5042541;28;20077;-49
2021/10/13 07:20:19;;;;;;;10.98;8.40;;;;;;;11.15;100.00;96911.72;5047515;28;20076;-57
2021/10/13 07:22:48;;;;;;;11.88;8.73;;;;;;;11.30;100.00;96905.06;5022205;28;20093;-55
2021/10/13 07:25:21;;;;;;;13.73;9.82;;;;;;;11.16;100.00;96911.56;5013213;28;20069;-55
2021/10/13 07:27:50;;;;;;;9.93;8.18;;;;;;;11.40;100.00;96908.53;5018452;28;20107;-58
2021/10/13 07:30:23;;;;;;;12.10;8.57;;;;;;;10.98;100.00;96912.34;5034537;28;20084;-54
2021/10/13 07:32:53;;;;;;;12.20;8.02;;;;;;;10.78;100.00;96916.78;5048469;28;20049;-53
2021/10/13 07:35:23;;;;;;;11.15;8.00;;;;;;;10.56;100.00;96923.91;5032043;28;20080;-55
2021/10/13 07:37:52;;;;;;;12.20;8.25;;;;;;;10.48;100.00;96926.38;5020949;28;20552;-51
2021/10/13 07:40:20;;;;;;;12.45;7.85;;;;;;;10.21;100.00;96922.47;5024629;28;20080;-55
2021/10/13 07:42:49;;;;;;;9.50;6.97;;;;;;;9.96;100.00;96925.53;5019554;28;20076;-54
2021/10/13 07:45:19;;;;;;;10.18;7.38;;;;;;;9.94;100.00;96927.44;5018868;28;20088;-54
2021/10/13 07:47:47;;;;;;;9.17;7.07;;;;;;;9.96;100.00;96930.78;5048660;28;20449;-54
2021/10/13 07:50:18;;;;;;;8.82;6.82;;;;;;;9.62;100.00;96940.66;5048332;28;21049;-51
2021/10/13 07:52:46;;;;;;;9.60;6.93;;;;;;;9.67;100.00;96939.34;5043114;28;20504;-50
2021/10/13 07:55:15;;;;;;;9.50;6.30;;;;;;;9.65;100.00;96943.06;5036201;28;20079;-52
2021/10/13 07:57:43;;;;;;;8.60;6.15;;;;;;;9.80;100.00;96951.47;5033547;28;20061;-54
2021/10/13 08:00:14;;;;;;;11.32;6.97;;;;;;;9.71;100.00;96955.72;5030074;28;20626;-55
2021/10/13 08:02:45;;;;;;;9.40;7.15;;;;;;;9.96;100.00;96950.06;5050144;28;20084;-57
2021/10/13 08:05:16;;;;;;;8.88;7.05;;;;;;;10.12;100.00;96948.78;5047794;28;20076;-58
2021/10/13 08:07:46;;;;;;;9.48;7.40;;;;;;;10.32;100.00;96950.56;5049376;28;20442;-58
2021/10/13 08:10:15;;;;;;;10.40;7.03;;;;;;;10.41;100.00;96954.25;5039378;28;20723;-57
2021/10/13 08:12:44;;;;;;;8.82;6.40;;;;;;;10.61;100.00;96952.53;5028666;28;20060;-54
2021/10/13 08:15:12;;;;;;;13.57;7.75;;;;;;;11.01;100.00;96946.41;5041969;28;20080;-54
2021/10/13 08:17:41;;;;;;;11.18;7.10;;;;;;;11.03;100.00;96953.22;5036648;28;20123;-57
2021/10/13 08:20:10;;;;;;;10.32;7.10;;;;;;;11.35;100.00;96949.50;5025544;28;20104;-59
2021/10/13 08:22:39;;;;;;;12.80;6.22;;;;;;;11.24;100.00;96962.84;5022935;28;20092;-53
2021/10/13 08:25:10;;;;;;;8.48;6.38;;;;;;;11.44;100.00;96959.25;5029365;28;20065;-54
2021/10/13 08:27:39;;;;;;;7.30;6.05;;;;;;;11.57;100.00;96954.56;5030587;28;20508;-54
2021/10/13 08:30:09;;;;;;;8.43;6.00;;;;;;;11.46;100.00;96959.97;5031405;28;20095;-58
2021/10/13 08:32:37;;;;;;;10.65;6.35;;;;;;;12.02;100.00;96954.00;5043927;28;20065;-51
2021/10/13 08:35:07;;;;;;;9.15;6.63;;;;;;;12.03;100.00;96950.38;5032598;28;20060;-58
2021/10/13 08:37:36;;;;;;;9.25;6.43;;;;;;;12.45;100.00;96951.81;5041367;28;20494;-56
2021/10/13 08:40:05;;;;;;;9.90;6.38;;;;;;;12.02;100.00;96955.81;5043246;28;20072;-56
2021/10/13 08:42:35;;;;;;;7.32;6.32;;;;;;;11.65;100.00;96964.41;5041001;28;20065;-55
2021/10/13 08:45:05;;;;;;;6.85;5.13;;;;;;;12.01;100.00;96957.63;5031850;28;20449;-56
2021/10/13 08:47:34;;;;;;;7.65;5.50;;;;;;;11.87;100.00;96955.38;5051483;28;20072;-54
2021/10/13 08:50:02;;;;;;;8.00;5.35;;;;;;;12.06;100.00;96952.75;5042527;28;20072;-54
2021/10/13 08:52:32;;;;;;;9.50;5.20;;;;;;;12.65;100.00;96955.22;5035983;28;20073;-56
2021/10/13 08:55:00;;;;;;;6.72;5.38;;;;;;;12.48;100.00;96944.41;5040728;28;20060;-53
2021/10/13 08:57:30;;;;;;;7.20;5.70;;;;;;;11.93;100.00;96951.38;5045453;28;20057;-55
2021/10/13 09:00:00;;;;;;;8.07;5.78;;;;;;;11.91;100.00;96955.97;5050260;28;20735;-56
2021/10/13 09:02:42;;;;;;;8.27;5.85;;;;;;;11.95;100.00;96966.13;5047538;28;20066;-58
2021/10/13 09:05:12;;;;;;;8.30;5.18;;;;;;;12.64;100.00;96957.03;5048840;28;20095;-52
2021/10/13 09:07:49;;;;;;;10.27;6.50;;;;;;;13.28;100.00;96958.84;5046835;28;20060;-54
2021/10/13 09:10:27;;;;;;;9.38;5.75;;;;;;;13.74;100.00;96956.97;5048130;28;20702;-56
2021/10/13 09:12:56;;;;;;;9.77;5.45;;;;;;;13.23;100.00;96960.22;5034860;28;20084;-57
2021/10/13 09:15:27;;;;;;;6.20;4.55;;;;;;;13.72;100.00;96956.28;5032586;28;20064;-55
2021/10/13 09:17:57;;;;;;;8.48;5.35;;;;;;;13.84;100.00;96953.41;5039810;28;20120;-56
2021/10/13 09:20:26;;;;;;;;;;;;;;;13.59;100.00;96953.16;5047437;28;20512;-59
2021/10/13 09:23:00;;;;;;;6.63;4.95;;;;;;;13.72;100.00;96955.44;5036004;28;19921;-56
2021/10/13 09:25:29;;;;;;;7.28;4.88;;;;;;;14.39;100.00;96953.16;5026918;28;20076;-57
2021/10/13 09:27:58;;;;;;;6.72;5.05;;;;;;;14.19;100.00;96957.81;5023842;28;20056;-58
2021/10/13 09:30:30;;;;;;;8.88;5.55;;;;;;;14.37;100.00;96955.94;5027874;28;20060;-57
2021/10/13 09:33:14;;;;;;;7.50;5.15;;;;;;;14.29;100.00;96952.44;5050518;28;20092;-56
2021/10/13 09:35:44;;;;;;;5.88;4.70;;;;;;;14.25;100.00;96951.91;5050114;28;20461;-58
2021/10/13 09:38:15;;;;;;;7.03;4.82;;;;;;;12.95;100.00;96957.59;5036899;28;20073;-57
2021/10/13 09:40:44;;;;;;;7.20;5.00;;;;;;;14.34;100.00;96952.78;5020243;28;20077;-58
2021/10/13 09:43:30;;;;;;;7.90;5.38;;;;;;;13.80;100.00;96957.34;5036313;28;20071;-55
2021/10/13 09:46:06;;;;;;;6.57;4.72;;;;;;;13.97;100.00;96960.00;5037433;28;20057;-54
2021/10/13 09:48:36;;;;;;;8.10;5.65;;;;;;;13.50;100.00;96970.81;5032491;28;20068;-52
2021/10/13 09:51:16;;;;;;;7.15;5.28;;;;;;;13.19;100.00;96967.66;5048894;28;20539;-56
2021/10/13 09:53:44;;;;;;;6.90;5.30;;;;;;;13.60;100.00;96968.09;5033473;28;20084;-57
2021/10/13 09:56:30;;;;;;;6.45;4.88;;;;;;;13.41;100.00;96962.94;5021425;28;20072;-50
2021/10/13 09:59:13;;;;;;;7.57;4.00;;;;;;;13.92;100.00;96958.78;5036547;28;20057;-56
2021/10/13 10:01:45;;;;;;;5.60;3.60;;;;;;;13.08;100.00;96957.25;5044305;28;20068;-56
2021/10/13 10:04:17;;;;;;;5.18;3.60;;;;;;;13.13;100.00;96964.75;5043871;28;20073;-54
2021/10/13 10:06:50;;;;;;;4.65;3.40;;;;;;;12.94;100.00;96961.22;5050390;28;20076;-53
2021/10/13 10:09:20;;;;;;;4.97;3.30;;;;;;;13.48;100.00;96954.22;5034305;28;20676;-55
2021/10/13 10:11:50;;;;;;;5.57;3.75;;;;;;;12.82;100.00;96955.28;5047871;28;20520;-52
2021/10/13 10:14:45;;;;;;;5.30;3.80;;;;;;;12.41;100.00;96961.84;5019264;28;21299;-56
2021/10/13 10:17:38;;;;;;;5.25;3.95;;;;;;;12.22;100.00;96948.69;5046994;28;20069;-55
2021/10/13 10:20:08;;;;;;;6.25;3.95;;;;;;;12.41;100.00;96959.19;5046789;28;20081;-56
2021/10/13 10:22:47;;;;;;;6.53;3.97;;;;;;;11.86;100.00;96965.13;5044953;28;20060;-56
2021/10/13 10:25:16;;;;;;;5.32;4.20;;;;;;;12.39;100.00;96962.94;5045519;28;20505;-58
2021/10/13 10:27:44;;;;;;;7.95;4.45;;;;;;;12.08;100.00;96966.66;5042296;28;20356;-55
2021/10/13 10:30:17;;;;;;;4.82;3.78;;;;;;;12.23;100.00;96963.56;5046631;28;20462;-54
2021/10/13 10:33:19;;;;;;;6.30;3.70;;;;;;;12.08;100.00;96968.47;5043231;28;20650;-56
2021/10/13 10:35:49;;;;;;;4.75;4.07;;;;;;;12.24;100.00;96963.41;5032292;28;22004;-57
2021/10/13 10:38:20;;;;;;;6.60;3.70;;;;;;;11.87;100.00;96958.03;5028160;28;20081;-59
2021/10/13 10:40:49;;;;;;;6.03;4.15;;;;;;;12.04;100.00;96959.13;5007890;28;20089;-58
2021/10/13 10:43:22;;;;;;;5.18;4.35;;;;;;;12.47;100.00;96961.28;5007473;28;20065;-53
2021/10/13 10:45:54;;;;;;;4.78;3.85;;;;;;;12.11;100.00;96965.53;5021511;28;20069;-54
2021/10/13 10:48:25;;;;;;;7.78;4.97;;;;;;;12.26;100.00;96961.47;5035479;28;20104;-56
2021/10/13 10:50:58;;;;;;;6.18;4.60;;;;;;;11.51;100.00;96968.31;5047233;28;20067;-55
2021/10/13 10:53:32;;;;;;;6.10;4.60;;;;;;;11.62;100.00;96962.06;5015879;28;20045;-54
2021/10/13 10:56:25;;;;;;;6.53;4.75;;;;;;;11.27;100.00;96965.22;5025255;28;20093;-58
2021/10/13 10:59:05;;;;;;;6.25;4.85;;;;;;;11.60;100.00;96974.59;5042396;28;20199;-56
2021/10/13 11:01:34;;;;;;;8.23;5.15;;;;;;;12.02;100.00;96967.22;5049244;28;20072;-52
2021/10/13 11:04:09;;;;;;;7.35;5.35;;;;;;;11.77;100.00;96971.25;5045973;28;20063;-53
2021/10/13 11:06:39;;;;;;;6.57;4.70;;;;;;;12.04;100.00;96957.34;5041389;28;20521;-54
2021/10/13 11:09:09;;;;;;;7.50;5.13;;;;;;;12.11;100.00;96963.72;5045325;28;20077;-54
2021/10/13 11:11:40;;;;;;;8.43;4.88;;;;;;;12.19;100.00;96955.09;5049576;28;20089;-53
2021/10/13 11:14:13;;;;;;;9.02;4.85;;;;;;;12.85;100.00;96956.81;5044816;28;20065;-53
2021/10/13 11:16:49;;;;;;;8.48;5.03;;;;;;;12.81;100.00;96966.03;5039807;28;20058;-56
2021/10/13 11:19:21;;;;;;;5.13;3.80;;;;;;;12.57;100.00;96956.78;5040180;28;20500;-54
2021/10/13 11:21:59;;;;;;;3.78;3.42;;;;;;;12.31;100.00;96956.56;5051939;28;20072;-57
2021/10/13 11:24:28;;;;;;;5.32;3.90;;;;;;;13.36;100.00;96954.63;5050163;28;20065;-57
2021/10/13 11:26:56;;;;;;;4.40;3.72;;;;;;;12.56;100.00;96957.78;5050592;28;20524;-56
2021/10/13 11:29:28;;;;;;;8.25;4.00;;;;;;;12.96;100.00;96958.44;5050604;28;20465;-52
2021/10/13 11:32:04;;;;;;;4.82;3.58;;;;;;;13.50;100.00;96965.53;5050345;28;20524;-57
2021/10/13 11:34:34;;;;;;;6.88;4.10;;;;;;;13.62;99.58;96958.16;5050048;28;20071;-53
2021/10/13 11:37:03;;;;;;;6.32;3.92;;;;;;;13.45;93.83;96954.53;5050514;28;20550;-56
2021/10/13 11:39:34;;;;;;;4.90;3.22;;;;;;;13.14;100.00;96956.66;5050059;28;20057;-58
2021/10/13 11:42:03;;;;;;;6.40;4.18;;;;;;;13.39;100.00;96964.91;5049643;28;20076;-55
2021/10/13 11:44:32;;;;;;;3.83;2.80;;;;;;;12.31;100.00;96963.69;5051446;28;20167;-53